Richmond North's Hourly Summary for Friday, July 6, 2018
Hour Temp
(f)
RH
(%)
Solar Rad.
(MJ/m2)
Rainfall
(in)
Wind
(mph)
7/6/2018 12:00 AM 76 86 0 0 0.27
7/6/2018 1:00 AM 75 90 0 0 0.07
7/6/2018 2:00 AM 73 93 0 0 0.04
7/6/2018 3:00 AM 72 96 0 0 0
7/6/2018 4:00 AM 73 96 0 0 0
7/6/2018 5:00 AM 74 91 0 0 0.94
7/6/2018 6:00 AM 75 90 0.04 0 1.32
7/6/2018 7:00 AM 77 85 0.46 0 3.17
7/6/2018 8:00 AM 78 82 0.73 0 4.12
7/6/2018 9:00 AM 81 69 1.71 0 4.59
7/6/2018 10:00 AM 84 66 2.5 0 4.35
7/6/2018 11:00 AM 86 57 2.99 0 4.21
7/6/2018 12:00 PM 87 54 3.06 0 5.25
7/6/2018 1:00 PM 89 49 3.47 0 5.59
7/6/2018 2:00 PM 90 45 2.92 0 5.88
7/6/2018 3:00 PM 90 43 3 0 6.77
7/6/2018 4:00 PM 91 43 2.38 0 5.81
7/6/2018 5:00 PM 86 43 0.8 0 4.95
7/6/2018 6:00 PM 80 73 0.9 0 2.4
7/6/2018 7:00 PM 79 73 0.38 0 1.04
7/6/2018 8:00 PM 76 90 0.01 0 0
7/6/2018 9:00 PM 75 95 0 0 0
7/6/2018 10:00 PM 74 96 0 0 0.04
7/6/2018 11:00 PM 74 92 0 0 0.58
Data Summary 79 74 25.35 0.00 2.56